x

La Perouse Bank (46206) Wave Buoy

1:00 - Sun 26th Apr 2015 All times are PDT. -7 hours from GMT.

  • Sig Wave height 8.5ft
  • Peak Period 7s
  • Wind
    31mph, 38mph gusts
  • Sea Temp 52°f
  • Aire Temp 49°f
  • Sea Pressure 1020.9mb
  • La Perouse Bank
  • La Perouse Bank

More Historic Weather Station data

Upgrade to MSW Pro to gain access to the past 30 days of data for over 8000 Wavebouys and Weather Stations around the globe.

Join Pro

Comparision Forecast

View Surf forecast
   
dom 04/26 1:00 8.5ft 7s 31 38 mph 1020.9mb 52f 49f
12:00 7.5ft 6s 31 38 mph 1020.2mb 52f 50f
11:00 7.5ft 6s 29 36 mph 1020.1mb 52f 50f
10:00 6.5ft 5s 27 34 mph 1019.7mb 52f 50f
9:00 5.5ft 5s 25 29 mph 1019.2mb 52f 49f
8:00 5ft 5s 22 27 mph 1019.3mb 52f 50f
7:00 4.5ft 4s 22 27 mph 1018.2mb 52f 50f
6:00 4.5ft 8s 20 27 mph 1018.2mb 52f 51f
5:00 4ft 15s 20 25 mph 1018.1mb 53f 51f
4:00 3.5ft 9s 18 22 mph 1018.2mb 52f 51f
3:00 3.5ft 8s 16 20 mph 1018.2mb 53f 51f
2:00 4ft 7s 16 18 mph 1018.2mb 53f 51f
1:00 4.5ft 8s 13
mph
1018.4mb 53f 51f
12:00 4.5ft 8s 11 13 mph 1018mb 53f 51f
sáb 04/25 11:00 4.5ft 10s 7 9 mph 1018.1mb 53f 51f
10:00 4.5ft 9s 4 7 mph 1018.2mb 53f 50f
9:00 4.5ft 10s 4
mph
1017.8mb 53f 50f
8:00 4ft 10s 2 4 mph 1017.8mb 53f 50f
7:00 4.5ft 10s 9 11 mph 1017.9mb 53f 51f
6:00 4.5ft 10s 9 11 mph 1017.5mb 53f 51f
5:00 4ft 10s 7 9 mph 1017.4mb 53f 51f
4:00 4.5ft 10s 4 9 mph 1017.2mb 53f 51f
3:00 4.5ft 10s 7 9 mph 1017.5mb 54f 50f
2:00 5ft 10s 7 9 mph 1017.5mb 53f 50f
1:00 5ft 9s 4 9 mph 1017.1mb 54f 49f
12:00 5ft 10s 2 4 mph 1016.8mb 53f 49f
11:00 5ft 10s 2 4 mph 1016.4mb 52f 48f
10:00 5.5ft 10s 4
mph
1015.8mb 52f 47f
9:00 5.5ft 10s 2 4 mph 1015.4mb 52f 48f
8:00 5.5ft 11s 2 4 mph 1015mb 52f 47f
7:00 6ft 8s 2 4 mph 1014.5mb 51f 47f
6:00 6ft 11s 4 7 mph 1013.9mb 51f 46f
5:00 6ft 11s 7 9 mph 1013.5mb 52f 46f
4:00 6ft 11s 4
mph
1013.1mb 52f 47f
3:00 6.5ft 11s 4 7 mph 1013mb 52f 47f
2:00 7ft 10s 4 7 mph 1012.8mb 52f 48f
1:00 7ft 10s 7 9 mph 1012.6mb 52f 48f
12:00 7ft 13s 11 18 mph 1012.3mb 52f 49f
vie 04/24 11:00 8ft 10s 13 18 mph 1012.1mb 52f 49f
10:00 8ft 12s 9 13 mph 1011.8mb 52f 48f
9:00 8ft 11s 2 4 mph 1011.7mb 52f 47f
8:00 8ft 12s 7 9 mph 1011.3mb 52f 47f
7:00 8.5ft 13s 9 11 mph 1011mb 52f 48f
6:00 9ft 12s 16 18 mph 1010.7mb 52f 49f
5:00 10ft 12s 16 20 mph 1010.4mb 52f 49f
4:00 9.5ft 12s 16 18 mph 1010mb 52f 49f
3:00 11ft 12s 13 18 mph 1009.7mb 52f 48f
2:00 11ft 12s 9 13 mph 1009.5mb 52f 47f
1:00 12ft 12s 9 13 mph 1009mb 52f 46f
12:00 11ft 13s 13 18 mph 1008.9mb 52f 45f
11:00 10.5ft 14s 2 7 mph 1008.5mb 52f 47f
10:00 11ft 14s 7 11 mph 1007.9mb 52f 46f
9:00 11ft 11s 13 18 mph 1007mb 51f 45f
8:00 11.5ft 13s 18 22 mph 1006.4mb 51f 45f
7:00 12ft 15s 16 22 mph 1005.8mb 51f 44f
6:00 11.5ft 14s 20 27 mph 1005.1mb 51f 45f
5:00 12ft 16s 18 25 mph 1004.9mb 51f 45f
4:00 11.5ft 12s 18 25 mph 1004.7mb 52f 46f
3:00 12ft 14s 20 25 mph 1004.5mb 52f 46f
2:00 13ft 15s 9 13 mph 1004.7mb 51f 47f
1:00 13ft 14s 7 13 mph 1004.9mb 52f 47f
12:00 12ft 11s 11 16 mph 1005.1mb 52f 47f
jue 04/23 11:00 11ft 10s 13 18 mph 1005.3mb 52f 47f
10:00 10ft 10s 13 18 mph 1005.5mb 52f 47f
9:00 10ft 11s 18 20 mph 1005.7mb 52f 46f
8:00 8.5ft 10s 16 22 mph 1005.7mb 52f 47f
7:00 8.5ft 10s 11 16 mph 1006.1mb 52f 47f
6:00 8.5ft 11s 9 11 mph 1006.7mb 52f 48f
5:00 9.5ft 10s 11 13 mph 1007.2mb 52f 48f
4:00 8.5ft 11s 4 9 mph 1007.8mb 52f 48f
3:00 7.5ft 9s 22 27 mph 1007.9mb 52f 48f
2:00 8ft 10s 7 9 mph 1008.3mb 52f 48f
1:00 9ft 9s 11 13 mph 1008.5mb 52f 48f
12:00 9ft 10s 11 22 mph 1008.6mb 52f 46f
11:00 9ft 8s 13 18 mph 1008.5mb 52f 49f
10:00 8ft 7s 11 16 mph 1008.4mb 52f 49f
9:00 8ft 7s 16 22 mph 1008.4mb 52f 49f
8:00 8ft 6s 7 9 mph 1008.6mb 52f 49f
7:00 8ft 6s 4 9 mph 1008.3mb 52f 47f
6:00 6.5ft 6s 27 31 mph 1008.8mb 52f 47f
5:00 6ft 10s 27 31 mph 1009.8mb 52f 48f
4:00 5.5ft 11s 27 31 mph 1011.3mb 52f 47f
3:00 5.5ft 11s 22 27 mph 1012.6mb 51f 47f
2:00 5ft 11s 18 22 mph 1013.8mb 51f 48f
1:00 6ft 11s 18 20 mph 1015.1mb 51f 47f
12:00 5.5ft 11s 13 16 mph 1016.4mb 51f 47f
mié 04/22 11:00 6ft 10s 9 13 mph 1017.5mb 51f 46f
10:00 6ft 11s 9 16 mph 1018.2mb 51f 47f